createdAt,value
2018-12-11T00:00:08.379Z,2.20
2018-12-11T00:02:36.244Z,2.20
2018-12-11T00:05:04.214Z,2.20
2018-12-11T00:07:31.922Z,2.20
2018-12-11T00:09:59.643Z,2.20
2018-12-11T00:12:29.091Z,2.20
2018-12-11T00:14:57.533Z,2.20
2018-12-11T00:17:25.399Z,2.30
2018-12-11T00:19:53.268Z,2.20
2018-12-11T00:22:21.133Z,2.30
2018-12-11T00:24:49.002Z,2.20
2018-12-11T00:27:16.870Z,2.20
2018-12-11T00:29:44.743Z,2.10
2018-12-11T00:32:13.223Z,2.20
2018-12-11T00:34:40.919Z,2.20
2018-12-11T00:37:08.651Z,2.20
2018-12-11T00:39:36.519Z,2.20
2018-12-11T00:42:04.237Z,2.30
2018-12-11T00:44:32.052Z,2.20
2018-12-11T00:46:59.920Z,2.20
2018-12-11T00:49:27.566Z,2.20
2018-12-11T00:51:55.351Z,2.30
2018-12-11T00:54:23.123Z,2.30
2018-12-11T00:56:51.054Z,2.30
2018-12-11T00:59:18.784Z,2.30
2018-12-11T01:01:46.608Z,2.40
2018-12-11T01:04:14.852Z,2.40
2018-12-11T01:06:42.599Z,2.40
2018-12-11T01:09:10.425Z,2.30
2018-12-11T01:11:38.150Z,2.30
2018-12-11T01:14:05.765Z,2.30
2018-12-11T01:16:33.456Z,2.20
2018-12-11T01:19:01.301Z,2.30
2018-12-11T01:21:29.166Z,2.30
2018-12-11T01:23:57.577Z,2.30
2018-12-11T01:26:25.503Z,2.30
2018-12-11T01:28:53.646Z,2.20
2018-12-11T01:31:21.571Z,2.20
2018-12-11T01:33:50.318Z,2.30
2018-12-11T01:36:18.042Z,2.30
2018-12-11T01:38:45.874Z,2.30
2018-12-11T01:41:13.723Z,2.30
2018-12-11T01:43:41.448Z,2.30
2018-12-11T01:46:09.249Z,2.30
2018-12-11T01:48:37.077Z,2.20
2018-12-11T01:51:04.916Z,2.30
2018-12-11T01:53:32.831Z,2.30
2018-12-11T01:56:00.761Z,2.30
2018-12-11T01:58:28.623Z,2.30
2018-12-11T02:00:57.233Z,2.40
2018-12-11T02:03:25.162Z,2.30
2018-12-11T02:05:52.990Z,2.30
2018-12-11T02:08:22.342Z,2.30
2018-12-11T02:10:50.065Z,2.40
2018-12-11T02:13:17.892Z,2.40
2018-12-11T02:15:45.727Z,2.30
2018-12-11T02:18:13.562Z,2.40
2018-12-11T02:20:41.381Z,2.30
2018-12-11T02:23:09.309Z,2.30
2018-12-11T02:25:37.139Z,2.30
2018-12-11T02:28:05.044Z,2.30
2018-12-11T02:30:32.710Z,2.30
2018-12-11T02:33:00.784Z,2.30
2018-12-11T02:35:29.159Z,2.20
2018-12-11T02:37:57.086Z,2.20
2018-12-11T02:40:25.035Z,2.30
2018-12-11T02:42:52.907Z,2.20
2018-12-11T02:45:21.147Z,2.20
2018-12-11T02:47:49.484Z,2.30
2018-12-11T02:50:17.211Z,2.20
2018-12-11T02:52:45.132Z,2.30
2018-12-11T02:55:13.049Z,2.30
2018-12-11T02:57:40.758Z,2.30
2018-12-11T03:00:08.685Z,2.30
2018-12-11T03:02:36.410Z,2.30
2018-12-11T03:05:04.899Z,2.30
2018-12-11T03:07:34.022Z,2.30
2018-12-11T03:10:01.938Z,2.20
2018-12-11T03:12:29.575Z,2.30
2018-12-11T03:14:57.393Z,2.30
2018-12-11T03:17:25.321Z,2.30
2018-12-11T03:19:53.243Z,2.30
2018-12-11T03:22:21.784Z,2.30
2018-12-11T03:24:49.511Z,2.30
2018-12-11T03:27:17.238Z,2.40
2018-12-11T03:29:44.964Z,2.40
2018-12-11T03:32:12.686Z,2.40
2018-12-11T03:34:40.618Z,2.40
2018-12-11T03:37:08.349Z,2.40
2018-12-11T03:39:36.075Z,2.40
2018-12-11T03:42:03.934Z,2.30
2018-12-11T03:44:31.930Z,2.30
2018-12-11T03:46:59.816Z,2.20
2018-12-11T03:49:27.770Z,2.00
2018-12-11T03:51:55.923Z,1.90
2018-12-11T03:54:23.869Z,2.00
2018-12-11T03:56:51.674Z,2.10
2018-12-11T03:59:19.602Z,2.10
2018-12-11T04:01:47.332Z,2.00
2018-12-11T04:04:15.263Z,2.00
2018-12-11T04:06:43.185Z,2.10
2018-12-11T04:09:11.118Z,2.10
2018-12-11T04:11:38.968Z,2.00
2018-12-11T04:14:07.512Z,2.00
2018-12-11T04:16:35.513Z,2.00
2018-12-11T04:19:03.444Z,2.00
2018-12-11T04:21:31.101Z,2.00
2018-12-11T04:23:58.918Z,2.00
2018-12-11T04:26:28.561Z,2.10
2018-12-11T04:28:56.495Z,2.10
2018-12-11T04:31:24.423Z,2.10
2018-12-11T04:33:52.260Z,2.10
2018-12-11T04:36:20.382Z,2.20
2018-12-11T04:38:48.220Z,2.20
2018-12-11T04:41:16.407Z,2.20
2018-12-11T04:43:44.378Z,2.30
2018-12-11T04:46:12.410Z,2.30
2018-12-11T04:48:40.498Z,2.30
2018-12-11T04:51:08.375Z,2.30
2018-12-11T04:53:36.199Z,2.30
2018-12-11T04:56:03.904Z,2.30
2018-12-11T04:58:31.751Z,2.20
2018-12-11T05:00:59.618Z,2.20
2018-12-11T05:03:27.607Z,2.20
2018-12-11T05:05:55.945Z,2.20
2018-12-11T05:08:23.875Z,2.20
2018-12-11T05:10:51.747Z,2.20
2018-12-11T05:13:19.532Z,2.30
2018-12-11T05:15:47.456Z,2.20
2018-12-11T05:18:15.387Z,2.20
2018-12-11T05:20:43.953Z,2.20
2018-12-11T05:23:12.795Z,2.20
2018-12-11T05:25:41.229Z,2.20
2018-12-11T05:28:08.951Z,2.20
2018-12-11T05:30:36.877Z,2.30
2018-12-11T05:33:04.602Z,2.30
2018-12-11T05:35:32.267Z,2.30
2018-12-11T05:38:00.211Z,2.20
2018-12-11T05:40:27.985Z,2.30
2018-12-11T05:42:55.711Z,2.30
2018-12-11T05:45:23.740Z,2.30
2018-12-11T05:47:51.567Z,2.40
2018-12-11T05:50:20.314Z,2.30
2018-12-11T05:52:48.147Z,2.30
2018-12-11T05:55:15.903Z,2.30
2018-12-11T05:57:44.411Z,2.30
2018-12-11T06:00:13.960Z,2.30
2018-12-11T06:02:42.009Z,2.30
2018-12-11T06:05:10.148Z,2.30
2018-12-11T06:07:38.116Z,2.40
2018-12-11T06:10:06.419Z,2.30
2018-12-11T06:12:34.325Z,2.30
2018-12-11T06:15:02.519Z,2.30
2018-12-11T06:17:30.411Z,2.30
2018-12-11T06:19:58.171Z,2.30
2018-12-11T06:22:25.957Z,2.40
2018-12-11T06:24:53.883Z,2.40
2018-12-11T06:27:21.610Z,2.40
2018-12-11T06:29:49.538Z,2.40
2018-12-11T06:32:17.366Z,2.30
2018-12-11T06:34:45.192Z,2.40
2018-12-11T06:37:12.950Z,2.40
2018-12-11T06:39:40.745Z,2.40
2018-12-11T06:42:09.294Z,2.30
2018-12-11T06:44:37.190Z,2.30
2018-12-11T06:47:05.399Z,2.30
2018-12-11T06:49:33.599Z,2.40
2018-12-11T06:52:01.521Z,2.40
2018-12-11T06:54:29.243Z,2.30
2018-12-11T06:56:57.072Z,2.40
2018-12-11T06:59:24.897Z,2.30
2018-12-11T07:01:53.497Z,2.40
2018-12-11T07:04:21.367Z,2.30
2018-12-11T07:06:49.191Z,2.20
2018-12-11T07:09:16.854Z,2.20
2018-12-11T07:11:44.646Z,2.20
2018-12-11T07:14:12.472Z,2.20
2018-12-11T07:16:40.296Z,2.20
2018-12-11T07:19:08.225Z,2.20
2018-12-11T07:21:36.049Z,2.20
2018-12-11T07:24:03.711Z,2.20
2018-12-11T07:26:31.601Z,2.30
2018-12-11T07:28:59.486Z,2.30
2018-12-11T07:31:27.255Z,2.30
2018-12-11T07:33:56.925Z,2.30
2018-12-11T07:36:25.056Z,2.30
2018-12-11T07:38:53.403Z,2.20
2018-12-11T07:41:21.243Z,2.20
2018-12-11T07:43:49.252Z,2.30
2018-12-11T07:46:17.182Z,2.30
2018-12-11T07:48:45.065Z,2.30
2018-12-11T07:51:13.047Z,2.30
2018-12-11T07:53:40.972Z,2.30
2018-12-11T07:56:08.903Z,2.40
2018-12-11T07:58:36.828Z,2.40
2018-12-11T08:01:04.768Z,2.40
2018-12-11T08:03:32.434Z,2.40
2018-12-11T08:06:00.366Z,2.50
2018-12-11T08:08:28.148Z,2.50
2018-12-11T08:10:55.978Z,2.50
2018-12-11T08:13:23.906Z,2.50
2018-12-11T08:15:51.736Z,2.50
2018-12-11T08:18:19.842Z,2.50
2018-12-11T08:20:48.205Z,2.50
2018-12-11T08:23:17.469Z,2.50
2018-12-11T08:25:45.269Z,2.50
2018-12-11T08:28:13.127Z,2.50
2018-12-11T08:30:41.178Z,2.50
2018-12-11T08:33:09.086Z,2.50
2018-12-11T08:35:36.757Z,2.50
2018-12-11T08:38:04.373Z,2.60
2018-12-11T08:40:32.255Z,2.60
2018-12-11T08:43:00.085Z,2.60
2018-12-11T08:45:27.915Z,2.60
2018-12-11T08:47:55.740Z,2.70
2018-12-11T08:50:23.450Z,2.70
2018-12-11T08:52:51.499Z,2.70
2018-12-11T08:55:19.424Z,2.70
2018-12-11T08:57:47.358Z,2.70
2018-12-11T09:00:15.084Z,2.70
2018-12-11T09:02:42.808Z,2.70
2018-12-11T09:05:10.635Z,2.70
2018-12-11T09:07:38.566Z,2.70
2018-12-11T09:10:07.419Z,2.80
2018-12-11T09:12:35.094Z,2.80
2018-12-11T09:15:02.898Z,2.80
2018-12-11T09:17:30.892Z,2.80
2018-12-11T09:19:58.669Z,2.90
2018-12-11T09:22:26.648Z,2.90
2018-12-11T09:24:54.480Z,2.90
2018-12-11T09:27:22.553Z,2.90
2018-12-11T09:29:50.333Z,2.90
2018-12-11T09:32:18.060Z,2.90
2018-12-11T09:34:45.657Z,3.00
2018-12-11T09:37:14.225Z,3.00
2018-12-11T09:39:42.251Z,3.00
2018-12-11T09:42:10.083Z,3.10
2018-12-11T09:44:37.913Z,3.10
2018-12-11T09:47:05.899Z,3.00
2018-12-11T09:49:33.772Z,3.00
2018-12-11T09:52:01.501Z,3.00
2018-12-11T09:54:29.996Z,3.00
2018-12-11T09:56:58.045Z,3.00
2018-12-11T09:59:26.114Z,3.00
2018-12-11T10:01:53.864Z,3.00
2018-12-11T10:04:21.589Z,3.00
2018-12-11T10:06:49.392Z,3.00
2018-12-11T10:09:17.231Z,3.00
2018-12-11T10:11:46.665Z,3.00
2018-12-11T10:14:15.264Z,3.00
2018-12-11T10:16:42.998Z,3.00
2018-12-11T10:19:10.808Z,3.00
2018-12-11T10:21:38.733Z,3.00
2018-12-11T10:24:07.259Z,3.00
2018-12-11T10:26:35.000Z,3.00
2018-12-11T10:29:02.936Z,3.00
2018-12-11T10:31:30.941Z,3.00
2018-12-11T10:33:58.872Z,3.00
2018-12-11T10:36:26.608Z,3.10
2018-12-11T10:38:54.421Z,3.10
2018-12-11T10:41:22.746Z,3.10
2018-12-11T10:43:51.002Z,3.10
2018-12-11T10:46:18.929Z,3.20
2018-12-11T10:48:46.753Z,3.20
2018-12-11T10:51:14.832Z,3.20
2018-12-11T10:53:42.718Z,3.20
2018-12-11T10:56:10.645Z,3.20
2018-12-11T10:58:39.190Z,3.20
2018-12-11T11:01:13.166Z,3.20
2018-12-11T11:03:41.029Z,3.20
2018-12-11T11:06:09.780Z,3.20
2018-12-11T11:08:37.982Z,3.20
2018-12-11T11:11:05.743Z,3.20
2018-12-11T11:13:34.500Z,3.10
2018-12-11T11:16:02.282Z,3.10
2018-12-11T11:18:30.111Z,3.20
2018-12-11T11:20:58.047Z,3.20
2018-12-11T11:23:26.791Z,3.20
2018-12-11T11:25:54.614Z,3.20
2018-12-11T11:28:22.491Z,3.20
2018-12-11T11:30:50.273Z,3.20
2018-12-11T11:33:18.194Z,3.20
2018-12-11T11:35:46.022Z,3.20
2018-12-11T11:38:13.942Z,3.30
2018-12-11T11:40:41.787Z,3.30
2018-12-11T11:43:09.503Z,3.40
2018-12-11T11:45:37.322Z,3.40
2018-12-11T11:48:06.175Z,3.40
2018-12-11T11:50:34.517Z,3.40
2018-12-11T11:53:02.229Z,3.50
2018-12-11T11:55:29.942Z,3.40
2018-12-11T11:57:57.892Z,3.40
2018-12-11T12:00:25.819Z,3.40
2018-12-11T12:02:53.749Z,3.40
2018-12-11T12:05:21.475Z,3.50
2018-12-11T12:07:49.331Z,3.50
2018-12-11T12:10:18.355Z,3.50
2018-12-11T12:12:46.098Z,3.50
2018-12-11T12:15:14.935Z,3.50
2018-12-11T12:17:42.866Z,3.50
2018-12-11T12:20:10.997Z,3.50
2018-12-11T12:22:39.746Z,3.40
2018-12-11T12:25:08.388Z,3.40
2018-12-11T12:27:37.340Z,3.40
2018-12-11T12:30:06.015Z,3.40
2018-12-11T12:32:33.724Z,3.40
2018-12-11T12:35:02.041Z,3.40
2018-12-11T12:37:29.865Z,3.50
2018-12-11T12:39:57.890Z,3.50
2018-12-11T12:42:25.715Z,3.60
2018-12-11T12:44:53.430Z,3.60
2018-12-11T12:47:21.251Z,3.60
2018-12-11T12:49:50.781Z,3.60
2018-12-11T12:52:19.380Z,3.60
2018-12-11T12:54:47.493Z,3.60
2018-12-11T12:57:15.226Z,3.60
2018-12-11T12:59:43.163Z,3.60
2018-12-11T13:02:11.465Z,3.50
2018-12-11T13:04:39.742Z,3.60
2018-12-11T13:07:07.662Z,3.50
2018-12-11T13:09:35.590Z,3.40
2018-12-11T13:12:03.310Z,3.40
2018-12-11T13:14:30.980Z,3.40
2018-12-11T13:16:58.834Z,3.40
2018-12-11T13:19:26.684Z,3.40
2018-12-11T13:21:54.815Z,3.30
2018-12-11T13:24:23.339Z,3.30
2018-12-11T13:26:51.185Z,3.30
2018-12-11T13:29:19.045Z,3.20
2018-12-11T13:31:47.964Z,3.20
2018-12-11T13:34:16.410Z,3.20
2018-12-11T13:36:44.216Z,3.20
2018-12-11T13:39:12.648Z,3.30
2018-12-11T13:41:40.460Z,3.30
2018-12-11T13:44:09.290Z,3.30
2018-12-11T13:46:37.845Z,3.30
2018-12-11T13:49:06.742Z,3.30
2018-12-11T13:51:34.514Z,3.30
2018-12-11T13:54:02.840Z,3.30
2018-12-11T13:56:30.983Z,3.30
2018-12-11T13:58:59.741Z,3.30
2018-12-11T14:01:27.515Z,3.30
2018-12-11T14:03:55.372Z,3.30
2018-12-11T14:06:23.132Z,3.30
2018-12-11T14:08:51.528Z,3.40
2018-12-11T14:11:19.581Z,3.40
2018-12-11T14:13:47.642Z,3.40
2018-12-11T14:16:16.365Z,3.40
2018-12-11T14:18:44.355Z,3.40
2018-12-11T14:21:12.377Z,3.40
2018-12-11T14:23:41.283Z,3.40
2018-12-11T14:26:09.106Z,3.40
2018-12-11T14:28:36.909Z,3.40
2018-12-11T14:31:04.654Z,3.40
2018-12-11T14:33:32.561Z,3.30
2018-12-11T14:36:00.446Z,3.30
2018-12-11T14:38:28.165Z,3.30
2018-12-11T14:40:55.919Z,3.20
2018-12-11T14:43:24.134Z,3.20
2018-12-11T14:45:52.075Z,3.20
2018-12-11T14:48:19.951Z,3.10
2018-12-11T14:50:47.676Z,3.10
2018-12-11T14:53:15.544Z,3.00
2018-12-11T14:55:44.162Z,3.00
2018-12-11T14:58:13.328Z,3.00
2018-12-11T15:00:41.090Z,3.00
2018-12-11T15:03:08.988Z,3.00
2018-12-11T15:05:36.923Z,3.00
2018-12-11T15:08:04.840Z,3.00
2018-12-11T15:10:33.021Z,3.00
2018-12-11T15:13:00.906Z,3.00
2018-12-11T15:15:29.369Z,3.00
2018-12-11T15:17:57.318Z,3.10
2018-12-11T15:20:25.086Z,3.10
2018-12-11T15:22:53.026Z,3.10
2018-12-11T15:25:20.831Z,3.10
2018-12-11T15:27:49.147Z,3.10
2018-12-11T15:30:17.554Z,3.10
2018-12-11T15:32:46.987Z,3.10
2018-12-11T15:35:15.307Z,3.10
2018-12-11T15:37:43.393Z,3.10
2018-12-11T15:40:12.112Z,3.10
2018-12-11T15:42:40.228Z,3.10
2018-12-11T15:45:08.237Z,3.10
2018-12-11T15:47:36.363Z,3.10
2018-12-11T15:50:06.731Z,3.10
2018-12-11T15:52:34.821Z,3.10
2018-12-11T15:55:02.911Z,3.00
2018-12-11T15:57:31.115Z,2.90
2018-12-11T15:59:58.860Z,2.90
2018-12-11T16:02:26.903Z,2.90
2018-12-11T16:04:54.757Z,2.80
2018-12-11T16:07:22.628Z,2.80
2018-12-11T16:09:50.729Z,2.70
2018-12-11T16:12:18.637Z,2.70
2018-12-11T16:14:46.442Z,2.70
2018-12-11T16:17:14.231Z,2.60
2018-12-11T16:19:42.055Z,2.60
2018-12-11T16:22:10.250Z,2.60
2018-12-11T16:24:38.147Z,2.50
2018-12-11T16:27:06.160Z,2.40
2018-12-11T16:29:33.965Z,2.40
2018-12-11T16:32:01.684Z,2.40
2018-12-11T16:34:29.559Z,2.30
2018-12-11T16:36:57.454Z,2.40
2018-12-11T16:39:25.251Z,2.50
2018-12-11T16:41:53.467Z,2.50
2018-12-11T16:44:23.105Z,2.60
2018-12-11T16:46:50.904Z,2.50
2018-12-11T16:49:19.426Z,2.50
2018-12-11T16:51:47.121Z,2.50
2018-12-11T16:54:14.861Z,2.60
2018-12-11T16:56:42.725Z,2.70
2018-12-11T16:59:10.520Z,2.70
2018-12-11T17:01:38.421Z,2.70
2018-12-11T17:04:06.170Z,2.70
2018-12-11T17:06:33.822Z,2.70
2018-12-11T17:09:01.998Z,2.70
2018-12-11T17:11:30.037Z,2.70
2018-12-11T17:13:58.566Z,2.70
2018-12-11T17:16:29.661Z,2.60
2018-12-11T17:18:57.574Z,2.70
2018-12-11T17:21:27.334Z,2.70
2018-12-11T17:23:55.228Z,2.70
2018-12-11T17:29:01.644Z,2.60
2018-12-11T17:31:29.579Z,2.60
2018-12-11T17:33:57.470Z,2.60
2018-12-11T17:36:26.010Z,2.60
2018-12-11T17:38:54.042Z,2.60
2018-12-11T17:41:21.823Z,2.60
2018-12-11T17:43:49.699Z,2.60
2018-12-11T17:46:19.822Z,2.60
2018-12-11T17:48:48.529Z,2.60
2018-12-11T17:51:18.936Z,2.60
2018-12-11T17:53:49.075Z,2.60
2018-12-11T17:56:19.574Z,2.60
2018-12-11T17:58:47.503Z,2.60
2018-12-11T18:01:15.433Z,2.60
2018-12-11T18:03:43.357Z,2.60
2018-12-11T18:06:11.288Z,2.60
2018-12-11T18:08:42.188Z,2.70
2018-12-11T18:11:11.855Z,2.70
2018-12-11T18:13:43.410Z,2.60
2018-12-11T18:16:11.607Z,2.60
2018-12-11T18:18:41.975Z,2.60
2018-12-11T18:21:09.820Z,2.70
2018-12-11T18:23:37.751Z,2.70
2018-12-11T18:26:05.489Z,2.70
2018-12-11T18:28:33.403Z,2.70
2018-12-11T18:31:01.168Z,2.70
2018-12-11T18:33:29.093Z,2.70
2018-12-11T18:35:57.802Z,2.70
2018-12-11T18:38:25.625Z,2.70
2018-12-11T18:40:56.305Z,2.70
2018-12-11T18:43:24.356Z,2.70
2018-12-11T18:45:53.310Z,2.60
2018-12-11T18:48:23.897Z,2.70
2018-12-11T18:50:52.749Z,2.70
2018-12-11T18:53:20.781Z,2.70
2018-12-11T18:55:48.920Z,2.70
2018-12-11T18:58:17.960Z,2.70
2018-12-11T19:00:46.709Z,2.70
2018-12-11T19:03:14.947Z,2.70
2018-12-11T19:05:43.060Z,2.70
2018-12-11T19:08:11.830Z,2.70
2018-12-11T19:10:40.879Z,2.60
2018-12-11T19:13:09.871Z,2.60
2018-12-11T19:15:38.584Z,2.60
2018-12-11T19:18:06.511Z,2.60
2018-12-11T19:20:34.809Z,2.60
2018-12-11T19:23:06.667Z,2.60
2018-12-11T19:25:34.379Z,2.60
2018-12-11T19:28:03.548Z,2.60
2018-12-11T19:30:31.285Z,2.60
2018-12-11T19:33:00.124Z,2.60
2018-12-11T19:35:32.955Z,2.60
2018-12-11T19:37:59.498Z,2.60
2018-12-11T19:40:27.392Z,2.60
2018-12-11T19:42:55.729Z,2.60
2018-12-11T19:45:23.661Z,2.60
2018-12-11T19:47:52.655Z,2.70
2018-12-11T19:50:20.900Z,2.60
2018-12-11T19:52:48.784Z,2.60
2018-12-11T19:55:16.716Z,2.60
2018-12-11T19:57:45.359Z,2.60
2018-12-11T20:00:13.288Z,2.60
2018-12-11T20:02:41.219Z,2.60
2018-12-11T20:05:09.139Z,2.60
2018-12-11T20:07:36.980Z,2.60
2018-12-11T20:10:11.877Z,2.60
2018-12-11T20:12:40.214Z,2.60
2018-12-11T20:15:08.453Z,2.60
2018-12-11T20:17:36.381Z,2.60
2018-12-11T20:20:06.653Z,2.50
2018-12-11T20:22:34.432Z,2.50
2018-12-11T20:25:02.630Z,2.60
2018-12-11T20:27:31.185Z,2.60
2018-12-11T20:30:00.236Z,2.60
2018-12-11T20:32:28.576Z,2.60
2018-12-11T20:34:56.614Z,2.50
2018-12-11T20:37:24.821Z,2.50
2018-12-11T20:39:53.803Z,2.50
2018-12-11T20:42:21.632Z,2.60
2018-12-11T20:44:49.660Z,2.50
2018-12-11T20:47:18.025Z,2.50
2018-12-11T20:49:46.225Z,2.50
2018-12-11T20:52:14.303Z,2.60
2018-12-11T20:54:44.266Z,2.50
2018-12-11T20:57:14.495Z,2.50
2018-12-11T20:59:45.989Z,2.50
2018-12-11T21:02:14.952Z,2.50
2018-12-11T21:04:45.427Z,2.50
2018-12-11T21:07:16.130Z,2.50
2018-12-11T21:09:44.370Z,2.50
2018-12-11T21:12:14.445Z,2.50
2018-12-11T21:14:46.392Z,2.50
2018-12-11T21:17:16.457Z,2.50
2018-12-11T21:19:46.817Z,2.50
2018-12-11T21:22:17.394Z,2.50
2018-12-11T21:24:46.132Z,2.50
2018-12-11T21:27:19.232Z,2.50
2018-12-11T21:30:00.384Z,2.50
2018-12-11T21:32:30.675Z,2.50
2018-12-11T21:34:59.622Z,2.50
2018-12-11T21:37:32.733Z,2.50
2018-12-11T21:40:01.242Z,2.50
2018-12-11T21:42:29.328Z,2.50
2018-12-11T21:44:58.693Z,2.50
2018-12-11T21:47:34.301Z,2.50
2018-12-11T21:50:02.354Z,2.40
2018-12-11T21:52:31.055Z,2.50
2018-12-11T21:54:58.990Z,2.40
2018-12-11T21:57:26.926Z,2.50
2018-12-11T21:59:55.380Z,2.50
2018-12-11T22:02:23.870Z,2.50
2018-12-11T22:04:51.663Z,2.50
2018-12-11T22:07:19.776Z,2.40
2018-12-11T22:09:50.706Z,2.40
2018-12-11T22:12:20.890Z,2.50
2018-12-11T22:14:48.549Z,2.50
2018-12-11T22:17:17.447Z,2.50
2018-12-11T22:19:45.416Z,2.50
2018-12-11T22:22:13.142Z,2.50
2018-12-11T22:24:40.984Z,2.50
2018-12-11T22:27:08.852Z,2.50
2018-12-11T22:29:36.846Z,2.50
2018-12-11T22:32:04.788Z,2.40
2018-12-11T22:34:32.531Z,2.50
2018-12-11T22:37:00.447Z,2.50
2018-12-11T22:39:28.558Z,2.40
2018-12-11T22:41:56.419Z,2.50
2018-12-11T22:44:24.966Z,2.50
2018-12-11T22:46:53.211Z,2.50
2018-12-11T22:49:22.589Z,2.50
2018-12-11T22:51:50.616Z,2.50
2018-12-11T22:54:19.064Z,2.50
2018-12-11T22:56:46.896Z,2.50
2018-12-11T22:59:15.549Z,2.50
2018-12-11T23:01:43.488Z,2.50
2018-12-11T23:04:11.118Z,2.50
2018-12-11T23:06:38.939Z,2.50
2018-12-11T23:09:07.793Z,2.50
2018-12-11T23:11:35.626Z,2.50
2018-12-11T23:14:03.627Z,2.50
2018-12-11T23:16:31.611Z,2.50
2018-12-11T23:18:59.516Z,2.50
2018-12-11T23:21:28.677Z,2.50
2018-12-11T23:23:58.252Z,2.50
2018-12-11T23:26:26.081Z,2.50
2018-12-11T23:28:54.426Z,2.40
2018-12-11T23:31:22.367Z,2.50
2018-12-11T23:33:50.199Z,2.50
2018-12-11T23:36:18.131Z,2.50
2018-12-11T23:38:45.966Z,2.50
2018-12-11T23:41:14.304Z,2.50
2018-12-11T23:43:42.445Z,2.50
2018-12-11T23:46:10.321Z,2.50
2018-12-11T23:48:38.904Z,2.50
2018-12-11T23:51:06.826Z,2.40
2018-12-11T23:53:34.642Z,2.40
2018-12-11T23:56:02.465Z,2.40
2018-12-11T23:58:30.279Z,2.40
